createdAt,value
2018-12-26T00:04:44.404Z,99791.23
2018-12-26T00:09:46.458Z,99779.16
2018-12-26T00:14:48.505Z,99780.13
2018-12-26T00:19:50.672Z,99788.24
2018-12-26T00:24:52.806Z,99777.29
2018-12-26T00:29:54.861Z,99784.06
2018-12-26T00:34:56.943Z,99770.34
2018-12-26T00:39:59.001Z,99763.44
2018-12-26T00:45:01.059Z,99780.05
2018-12-26T00:50:04.154Z,99771.58
2018-12-26T00:55:06.260Z,99782.67
2018-12-26T01:00:08.523Z,99773.41
2018-12-26T01:05:10.595Z,99792.17
2018-12-26T01:10:12.641Z,99797.71
2018-12-26T01:15:14.701Z,99783.20
2018-12-26T01:20:16.850Z,99774.89
2018-12-26T01:25:19.002Z,99773.48
2018-12-26T01:30:21.061Z,99769.00
2018-12-26T01:35:24.235Z,99768.62
2018-12-26T01:40:26.289Z,99778.92
2018-12-26T01:45:28.354Z,99770.69
2018-12-26T01:50:30.426Z,99767.66
2018-12-26T01:55:32.610Z,99777.29
2018-12-26T02:00:34.674Z,99776.36
2018-12-26T02:05:36.744Z,99786.50
2018-12-26T02:10:38.802Z,99793.56
2018-12-26T02:15:40.867Z,99792.03
2018-12-26T02:20:42.919Z,99784.91
2018-12-26T02:25:45.045Z,99786.70
2018-12-26T02:30:47.118Z,99793.02
2018-12-26T02:35:49.485Z,99788.66
2018-12-26T02:40:51.547Z,99783.42
2018-12-26T02:45:53.615Z,99799.97
2018-12-26T02:50:55.694Z,99800.24
2018-12-26T02:55:57.813Z,99787.53
2018-12-26T03:00:59.967Z,99791.80
2018-12-26T03:06:02.033Z,99778.28
2018-12-26T03:11:04.288Z,99800.66
2018-12-26T03:16:06.363Z,99812.80
2018-12-26T03:21:08.571Z,99796.03
2018-12-26T03:26:10.795Z,99800.45
2018-12-26T03:31:12.878Z,99790.27
2018-12-26T03:36:16.062Z,99794.32
2018-12-26T03:41:18.426Z,99786.84
2018-12-26T03:46:20.512Z,99772.69
2018-12-26T03:51:22.830Z,99760.95
2018-12-26T03:56:25.047Z,99760.11
2018-12-26T04:01:27.179Z,99748.17
2018-12-26T04:06:29.249Z,99718.47
2018-12-26T04:11:31.316Z,99736.00
2018-12-26T04:16:33.382Z,99767.34
2018-12-26T04:21:35.451Z,99756.52
2018-12-26T04:26:37.763Z,99753.56
2018-12-26T04:31:40.153Z,99775.90
2018-12-26T04:36:42.177Z,99768.18
2018-12-26T04:41:44.389Z,99762.61
2018-12-26T04:46:46.323Z,99768.08
2018-12-26T04:51:48.279Z,99773.67
2018-12-26T04:56:50.563Z,99781.05
2018-12-26T05:01:53.557Z,99784.64
2018-12-26T05:06:55.963Z,99771.34
2018-12-26T05:11:58.367Z,99788.20
2018-12-26T05:17:00.376Z,99783.70
2018-12-26T05:22:02.388Z,99793.34
2018-12-26T05:27:04.687Z,99784.30
2018-12-26T05:32:06.983Z,99772.45
2018-12-26T05:37:09.009Z,99789.44
2018-12-26T05:42:11.021Z,99779.58
2018-12-26T05:47:12.970Z,99783.97
2018-12-26T05:52:14.890Z,99795.73
2018-12-26T05:57:16.882Z,99790.24
2018-12-26T06:02:18.825Z,99785.39
2018-12-26T06:07:20.931Z,99795.27
2018-12-26T06:12:24.682Z,99793.56
2018-12-26T06:17:26.585Z,99799.28
2018-12-26T06:22:28.406Z,99798.94
2018-12-26T06:27:30.531Z,99799.41
2018-12-26T06:32:32.467Z,99795.59
2018-12-26T06:37:34.282Z,99793.12
2018-12-26T06:42:36.093Z,99789.09
2018-12-26T06:47:38.013Z,99797.98
2018-12-26T06:52:40.053Z,99787.07
2018-12-26T06:57:42.082Z,99784.81
2018-12-26T07:02:44.128Z,99786.48
2018-12-26T07:07:46.073Z,99790.16
2018-12-26T07:12:47.978Z,99788.02
2018-12-26T07:17:49.996Z,99800.50
2018-12-26T07:22:51.815Z,99799.20
2018-12-26T07:27:53.908Z,99796.70
2018-12-26T07:32:55.925Z,99792.30
2018-12-26T07:37:57.958Z,99798.48
2018-12-26T07:43:00.992Z,99798.82
2018-12-26T07:48:03.090Z,99795.50
2018-12-26T07:53:05.155Z,99794.45
2018-12-26T07:58:07.134Z,99786.50
2018-12-26T08:03:09.170Z,99786.63
2018-12-26T08:08:11.090Z,99776.53
2018-12-26T08:13:13.017Z,99769.64
2018-12-26T08:18:15.066Z,99773.91
2018-12-26T08:23:17.262Z,99776.65
2018-12-26T08:28:26.518Z,99790.77
2018-12-26T08:33:24.107Z,99797.55
2018-12-26T08:38:26.219Z,99790.05
2018-12-26T08:43:28.054Z,99789.94
2018-12-26T08:48:29.875Z,99782.11
2018-12-26T08:53:31.792Z,99791.62
2018-12-26T08:58:35.271Z,99793.27
2018-12-26T09:03:37.450Z,99796.95
2018-12-26T09:08:39.501Z,99787.32
2018-12-26T09:13:41.448Z,99785.54
2018-12-26T09:18:44.672Z,99781.98
2018-12-26T09:23:46.774Z,99788.39
2018-12-26T09:28:53.350Z,99783.53
2018-12-26T09:33:57.429Z,99773.80
2018-12-26T09:38:59.503Z,99775.59
2018-12-26T09:44:01.505Z,99768.58
2018-12-26T09:49:03.962Z,99776.89
2018-12-26T09:54:06.186Z,99764.77
2018-12-26T09:59:08.334Z,99755.41
2018-12-26T10:04:10.226Z,99757.30
2018-12-26T10:09:12.234Z,99759.78
2018-12-26T10:14:14.026Z,99758.25
2018-12-26T10:19:15.958Z,99751.48
2018-12-26T10:24:18.089Z,99752.88
2018-12-26T10:29:20.175Z,99740.05
2018-12-26T10:34:22.170Z,99747.16
2018-12-26T10:39:24.082Z,99739.08
2018-12-26T10:44:26.082Z,99734.17
2018-12-26T10:49:27.993Z,99729.36
2018-12-26T10:54:29.989Z,99729.56
2018-12-26T10:59:31.879Z,99722.02
2018-12-26T11:04:33.820Z,99717.33
2018-12-26T11:09:35.729Z,99714.02
2018-12-26T11:14:37.858Z,99700.84
2018-12-26T11:19:39.891Z,99698.87
2018-12-26T11:24:42.101Z,99683.67
2018-12-26T11:29:44.203Z,99689.22
2018-12-26T11:34:46.101Z,99689.19
2018-12-26T11:39:48.103Z,99680.64
2018-12-26T11:44:50.102Z,99678.03
2018-12-26T11:49:52.105Z,99670.70
2018-12-26T11:54:54.115Z,99665.66
2018-12-26T11:59:56.054Z,99669.22
2018-12-26T12:04:58.056Z,99662.44
2018-12-26T12:10:00.112Z,99662.85
2018-12-26T12:15:02.458Z,99659.20
2018-12-26T12:20:06.217Z,99662.11
2018-12-26T12:25:08.375Z,99671.88
2018-12-26T12:30:10.427Z,99669.62
2018-12-26T12:35:12.426Z,99676.27
2018-12-26T12:40:14.423Z,99666.60
2018-12-26T12:45:16.423Z,99668.36
2018-12-26T12:50:18.430Z,99663.78
2018-12-26T12:55:20.501Z,99652.37
2018-12-26T13:00:22.452Z,99656.38
2018-12-26T13:05:24.438Z,99658.02
2018-12-26T13:10:26.335Z,99654.18
2018-12-26T13:15:28.328Z,99648.94
2018-12-26T13:20:30.344Z,99660.67
2018-12-26T13:25:32.707Z,99651.48
2018-12-26T13:30:34.789Z,99654.10
2018-12-26T13:35:36.789Z,99659.11
2018-12-26T13:40:38.788Z,99661.88
2018-12-26T13:45:40.793Z,99650.17
2018-12-26T13:50:42.810Z,99652.88
2018-12-26T13:55:44.818Z,99650.95
2018-12-26T14:00:46.922Z,99654.88
2018-12-26T14:05:48.920Z,99647.64
2018-12-26T14:10:52.039Z,99652.73
2018-12-26T14:15:54.053Z,99638.67
2018-12-26T14:20:55.870Z,99649.64
2018-12-26T14:25:57.891Z,99653.57
2018-12-26T14:31:00.132Z,99660.59
2018-12-26T14:36:03.330Z,99655.50
2018-12-26T14:41:05.610Z,99648.25
2018-12-26T14:46:07.482Z,99650.87
2018-12-26T14:51:09.483Z,99653.34
2018-12-26T14:56:12.349Z,99661.34
2018-12-26T15:01:14.424Z,99655.50
2018-12-26T15:06:16.419Z,99657.14
2018-12-26T15:11:18.229Z,99651.28
2018-12-26T15:16:20.420Z,99655.97
2018-12-26T15:21:22.433Z,99656.80
2018-12-26T15:26:24.457Z,99660.23
2018-12-26T15:31:26.408Z,99668.84
2018-12-26T15:36:28.415Z,99666.69
2018-12-26T15:41:31.311Z,99673.37
2018-12-26T15:46:33.368Z,99683.38
2018-12-26T15:51:35.276Z,99687.63
2018-12-26T15:56:37.368Z,99681.59
2018-12-26T16:01:39.443Z,99672.42
2018-12-26T16:06:41.443Z,99674.55
2018-12-26T16:11:43.451Z,99672.52
2018-12-26T16:16:45.358Z,99662.04
2018-12-26T16:21:47.153Z,99666.44
2018-12-26T16:26:49.093Z,99665.36
2018-12-26T16:31:51.176Z,99660.45
2018-12-26T16:36:52.970Z,99679.34
2018-12-26T16:41:54.971Z,99674.61
2018-12-26T16:46:56.966Z,99674.69
2018-12-26T16:51:58.971Z,99677.78
2018-12-26T16:57:00.965Z,99679.31
2018-12-26T17:02:03.032Z,99681.65
2018-12-26T17:07:05.030Z,99669.86
2018-12-26T17:12:07.037Z,99670.23
2018-12-26T17:17:09.046Z,99671.11
2018-12-26T17:22:11.125Z,99678.50
2018-12-26T17:27:13.183Z,99682.65
2018-12-26T17:32:15.260Z,99675.95
2018-12-26T17:37:17.213Z,99678.25
2018-12-26T17:42:18.955Z,99689.89
2018-12-26T17:47:20.975Z,99688.44
2018-12-26T17:52:22.981Z,99696.30
2018-12-26T17:57:29.381Z,99696.05
2018-12-26T18:02:39.438Z,99704.85
2018-12-26T18:07:41.344Z,99699.14
2018-12-26T18:12:43.245Z,99692.81
2018-12-26T18:17:45.142Z,99700.76
2018-12-26T18:22:47.047Z,99713.16
2018-12-26T18:27:48.882Z,99705.91
2018-12-26T18:32:50.851Z,99704.09
2018-12-26T18:37:52.762Z,99700.17
2018-12-26T18:42:54.657Z,99700.39
2018-12-26T18:47:56.669Z,99708.61
2018-12-26T18:52:58.569Z,99699.92
2018-12-26T18:58:00.464Z,99700.06
2018-12-26T19:03:02.553Z,99702.40
2018-12-26T19:08:04.570Z,99704.16
2018-12-26T19:13:06.834Z,99700.47
2018-12-26T19:18:08.822Z,99695.70
2018-12-26T19:23:10.731Z,99683.80
2018-12-26T19:28:12.783Z,99686.28
2018-12-26T19:33:14.885Z,99682.58
2018-12-26T19:38:17.069Z,99684.30
2018-12-26T19:43:18.977Z,99684.44
2018-12-26T19:48:20.910Z,99680.14
2018-12-26T19:53:22.981Z,99679.53
2018-12-26T19:58:25.006Z,99679.75
2018-12-26T20:03:26.961Z,99676.51
2018-12-26T20:08:28.977Z,99675.56
2018-12-26T20:13:30.959Z,99677.34
2018-12-26T20:18:32.942Z,99668.64
2018-12-26T20:23:34.947Z,99669.70
2018-12-26T20:28:36.867Z,99669.09
2018-12-26T20:33:38.898Z,99666.10
2018-12-26T20:38:41.037Z,99661.84
2018-12-26T20:43:43.048Z,99659.41
2018-12-26T20:48:45.050Z,99661.08
2018-12-26T20:53:46.944Z,99661.41
2018-12-26T20:58:48.954Z,99665.27
2018-12-26T21:03:52.070Z,99664.94
2018-12-26T21:08:53.853Z,99665.87
2018-12-26T21:13:56.537Z,99669.62
2018-12-26T21:18:58.341Z,99664.23
2018-12-26T21:24:00.351Z,99668.50
2018-12-26T21:29:02.392Z,99665.08
2018-12-26T21:34:04.347Z,99664.53
2018-12-26T21:39:06.661Z,99656.23
2018-12-26T21:44:08.567Z,99656.38
2018-12-26T21:49:10.619Z,99649.06
2018-12-26T21:54:12.643Z,99659.48
2018-12-26T21:59:14.714Z,99657.08
2018-12-26T22:04:16.767Z,99656.88
2018-12-26T22:09:18.565Z,99648.67
2018-12-26T22:14:20.763Z,99648.53
2018-12-26T22:19:22.742Z,99650.86
2018-12-26T22:24:24.766Z,99642.31
2018-12-26T22:29:26.858Z,99643.80
2018-12-26T22:34:28.766Z,99647.18
2018-12-26T22:39:30.676Z,99646.38
2018-12-26T22:44:32.582Z,99644.91
2018-12-26T22:49:34.590Z,99639.05
2018-12-26T22:54:36.641Z,99635.52
2018-12-26T22:59:38.638Z,99639.02
2018-12-26T23:04:40.750Z,99640.75
2018-12-26T23:09:42.699Z,99638.33
2018-12-26T23:14:44.702Z,99637.38
2018-12-26T23:19:46.704Z,99630.67
2018-12-26T23:24:48.600Z,99633.56
2018-12-26T23:29:50.628Z,99630.61
2018-12-26T23:34:52.696Z,99634.40
2018-12-26T23:39:54.929Z,99635.92
2018-12-26T23:44:56.933Z,99632.25
2018-12-26T23:49:58.825Z,99626.67
2018-12-26T23:55:00.746Z,99618.18
